Tuesday, December 18, 2018, 12:18 PM EST
Back to Local

KORH, Worcester Regional Airport

Location: Worcester, MA, United States Lat: 42.267
Local Time: 12:18 PM EST (17:18 GMT) Lon: -71.867
Time Zone: US/Eastern Elev: 1010 ft

Show me the last for .
Show Decoded

2018-12-18 11:54 METAR KORH 181654Z 30016G22KT 10SM CLR M04/M13 A2984 RMK AO2 PK WND 29030/1609
                 SLP117 T10391128 =
2018-12-18 10:54 METAR KORH 181554Z 31014G31KT 10SM CLR M06/M13 A2983 RMK AO2 PK WND 30035/1543
                 SLP115 T10561133 =
2018-12-18 09:54 METAR KORH 181454Z 31021G30KT 10SM CLR M06/M13 A2983 RMK AO2 PK WND 28039/1401
                 SLP114 T10611133 53029 =
2018-12-18 08:54 METAR KORH 181354Z 31017G29KT 10SM CLR M07/M14 A2979 RMK AO2 PK WND 31041/1316
                 SLP103 T10671139 =
2018-12-18 07:54 METAR KORH 181254Z 30021G32KT 10SM CLR M07/M14 A2976 RMK AO2 PK WND 29036/1239
                 SLP091 T10721139 =
2018-12-18 06:54 METAR KORH 181154Z 31024G37KT 10SM SCT039 M07/M14 A2974 RMK AO2 PK WND
                 30037/1154 SLP085 60000 T10671139 11017 21067 51034 =
2018-12-18 05:54 METAR KORH 181054Z 31012G31KT 10SM OVC039 M07/M13 A2972 RMK AO2 PK WND
                 31038/0958 SLP076 T10671133 =
2018-12-18 04:54 METAR KORH 180954Z AUTO 29026G35KT 10SM BKN033 BKN040 M07/M13 A2966 RMK AO2 PK
                 WND 28035/0952 UPB37E43SNE37B43E44 SLP058 P0000 T10671128 =
2018-12-18 04:33 METAR KORH 180933Z AUTO 29022G30KT 8SM -SN SCT029 OVC039 M06/M11 A2966 RMK AO2
                 PK WND 29033/0910 P0000 T10611111 =
2018-12-18 04:13 METAR KORH 180913Z AUTO 31024G33KT 4SM -SN BKN028 OVC035 M06/M11 A2965 RMK AO2
                 PK WND 29033/0910 P0000 T10611111 =
2018-12-18 03:54 METAR KORH 180854Z AUTO 30018G29KT 8SM -SN BKN031 OVC038 M06/M11 A2964 RMK AO2
                 PK WND 30034/0834 SNB47 SLP048 P0000 60000 T10561111 51026 =
2018-12-18 02:54 METAR KORH 180754Z AUTO 29022G30KT 10SM OVC038 M04/M11 A2962 RMK AO2 PK WND
                 28035/0722 SLP042 T10441106 =
2018-12-18 01:54 METAR KORH 180654Z AUTO 30026G31KT 10SM SCT050 M03/M11 A2959 RMK AO2 PK WND
                 29039/0614 SLP031 T10281106 =
2018-12-18 00:54 METAR KORH 180554Z 30021G29KT 10SM CLR M02/M08 A2956 RMK AO2 PK WND 27035/0538
                 SNE23 SLP020 P0000 60000 T10171083 10006 21017 53001 =
2018-12-18 00:31 METAR KORH 180531Z 30021G35KT 10SM SCT030 BKN070 BKN095 M01/M07 A2954 RMK AO2 PK
                 WND 29035/0526 SNE23 P0000 T10111072 =
2018-12-18 00:22 METAR KORH 180522Z 30021G31KT 8SM -SN FEW017 BKN028 OVC070 M01/M05 A2954 RMK AO2
                 PK WND 30031/0521 P0000 T10111050 =
2018-12-18 00:16 METAR KORH 180516Z 29017G24KT 2SM -SN FEW019 BKN030 OVC070 M01/M04 A2954 RMK AO2
                 P0000 T10111039 =
2018-12-18 00:12 METAR KORH 180512Z 28014G22KT 1 1/2SM -SN FEW017 OVC025 M01/M04 A2954 RMK AO2
                 P0000 T10111039 =
2018-12-17 23:54 METAR KORH 180454Z 31014G27KT 2 1/2SM -SN SCT020 BKN027 OVC042 M01/M04 A2954 RMK
                 AO2 PK WND 31027/0451 VIS 1 3/4V3 SNB32 SLP013 P0000 T10061044 400171006 =
2018-12-17 23:51 METAR KORH 180451Z 31019G27KT 2 1/2SM -SN SCT022 BKN027 OVC042 M01/M04 A2954 RMK
                 AO2 PK WND 31027/0451 VIS 1 3/4V3 SNB32 P0000 =
2018-12-17 22:54 METAR KORH 180354Z 28013G20KT 10SM FEW028 BKN075 OVC085 01/M03 A2955 RMK AO2
                 SLP016 T00061033 =
2018-12-17 21:54 METAR KORH 180254Z 28011KT 10SM OVC075 01/M03 A2955 RMK AO2 SLP018 T00061033
                 58003 =
2018-12-17 20:54 METAR KORH 180154Z 28013G18KT 10SM OVC070 01/M03 A2956 RMK AO2 SLP020 T00061028
                 =
2018-12-17 19:54 METAR KORH 180054Z 27012G19KT 10SM FEW038 BKN065 00/M03 A2956 RMK AO2 SLP022
                 T00001028 =
2018-12-17 18:54 METAR KORH 172354Z 27009KT 10SM CLR 00/M02 A2956 RMK AO2 SLP022 60000 T00001022
                 10017 20000 53014 =
2018-12-17 17:54 METAR KORH 172254Z 29013G25KT 10SM SCT055 01/M02 A2954 RMK AO2 SLP013 T00111022
                 =
2018-12-17 16:54 METAR KORH 172154Z 28014G21KT 10SM FEW040 OVC050 02/M02 A2953 RMK AO2 SLP009
                 T00171017 =
2018-12-17 15:54 METAR KORH 172054Z 27010KT 10SM FEW027 SCT036 OVC055 02/M01 A2952 RMK AO2
                 SNB25E35 SLP006 P0000 60000 T00171011 55000 =
2018-12-17 14:54 METAR KORH 171954Z 27011KT 10SM SCT031 BKN038 02/M01 A2952 RMK AO2 SLP006
                 T00171006 =
2018-12-17 14:49 METAR KORH 171949Z 28011KT 10SM FEW020 SCT031 BKN036 02/M01 A2952 RMK AO2 =
2018-12-17 13:54 METAR KORH 171854Z 28009KT 10SM SCT020 BKN027 OVC037 02/M01 A2952 RMK AO2 SLP006
                 T00171006 =
2018-12-17 12:54 METAR KORH 171754Z 29016G26KT 10SM OVC020 02/M01 A2954 RMK AO2 PK WND 29029/1729
                 SNE02 SLP012 P0000 60000 I6002 T00171011 10017 21006 56025 =

Support USWX by starting your Amazon purchase here.